Time;durP1;ratioP1;P1;durP2;ratioP2;P2;SDS_P1;SDS_P2;PMS_P1;PMS_P2;Temp;Humidity;BMP_temperature;BMP_pressure;BME280_temperature;BME280_humidity;BME280_pressure;Samples;Min_cycle;Max_cycle;Signal;HPM_P1;HPM_P2
2021/09/30 00:01:54;;;;;;;2.08;1.10;;;10.00;99.90;;;;;;5014910;28;20049;-70
2021/09/30 00:04:20;;;;;;;2.92;1.30;;;10.00;99.90;;;;;;5018752;28;20036;-70
2021/09/30 00:06:45;;;;;;;2.92;1.17;;;10.00;99.90;;;;;;5014274;28;20103;-69
2021/09/30 00:09:10;;;;;;;3.75;1.20;;;10.00;99.90;;;;;;5009623;28;20680;-70
2021/09/30 00:11:41;;;;;;;5.25;1.02;;;10.00;99.90;;;;;;5005278;28;20029;-70
2021/09/30 00:14:12;;;;;;;5.03;1.73;;;10.00;99.90;;;;;;5005142;28;20037;-69
2021/09/30 00:32:34;;;;;;;3.85;1.25;;;9.90;99.90;;;;;;4997710;28;20839;-70
2021/09/30 00:46:59;;;;;;;3.92;2.08;;;9.40;99.90;;;;;;5019075;28;20029;-70
2021/09/30 00:49:53;;;;;;;1.92;1.00;;;9.40;99.90;;;;;;5018498;28;20030;-71
2021/09/30 01:46:36;;;;;;;2.63;1.10;;;9.30;99.90;;;;;;5015606;28;20049;-71
2021/09/30 02:59:24;;;;;;;4.95;1.75;;;9.50;99.90;;;;;;5020692;28;20728;-70
2021/09/30 03:01:50;;;;;;;5.30;1.73;;;9.60;99.90;;;;;;5002097;28;20036;-70
2021/09/30 03:04:16;;;;;;;2.80;1.60;;;9.60;99.90;;;;;;5020127;28;20449;-71
2021/09/30 03:06:42;;;;;;;9.98;1.70;;;9.50;99.90;;;;;;5017766;28;20043;-71
2021/09/30 03:09:08;;;;;;;5.63;1.70;;;9.60;99.90;;;;;;5016091;28;20037;-70
2021/09/30 03:11:37;;;;;;;2.53;1.50;;;9.60;99.90;;;;;;5018337;28;20026;-70
2021/09/30 03:14:03;;;;;;;3.97;1.55;;;9.60;99.90;;;;;;5005915;28;20506;-70
2021/09/30 03:16:46;;;;;;;8.50;2.30;;;9.70;99.90;;;;;;5018789;28;20029;-70
2021/09/30 03:22:14;;;;;;;5.57;1.50;;;9.60;99.90;;;;;;5020541;28;20079;-70
2021/09/30 03:24:40;;;;;;;3.08;1.60;;;9.90;99.90;;;;;;5018231;28;20218;-70
2021/09/30 03:27:05;;;;;;;6.22;1.80;;;9.70;99.90;;;;;;5018963;28;20037;-70
2021/09/30 03:29:31;;;;;;;5.60;1.60;;;9.70;99.90;;;;;;5036724;28;20040;-71
2021/09/30 03:31:56;;;;;;;3.72;1.42;;;9.60;99.90;;;;;;5010489;28;20068;-70
2021/09/30 03:34:42;;;;;;;3.78;1.38;;;9.60;99.90;;;;;;5014958;28;20072;-70
2021/09/30 03:37:09;;;;;;;2.85;1.23;;;9.60;99.90;;;;;;5019658;28;20046;-70
2021/09/30 03:39:35;;;;;;;3.47;1.40;;;9.60;99.90;;;;;;5019814;28;20041;-70
2021/09/30 03:42:02;;;;;;;5.32;1.30;;;9.60;99.90;;;;;;5020385;28;20033;-70
2021/09/30 03:44:34;;;;;;;8.27;1.52;;;9.60;99.90;;;;;;5016755;28;20037;-70
2021/09/30 03:47:00;;;;;;;4.10;1.38;;;9.60;99.90;;;;;;5015096;28;20036;-70
2021/09/30 03:49:49;;;;;;;7.15;1.90;;;9.60;99.90;;;;;;5019928;28;20777;-70
2021/09/30 03:52:26;;;;;;;2.80;1.33;;;9.50;99.90;;;;;;5019826;28;20037;-71
2021/09/30 03:59:46;;;;;;;2.40;1.13;;;8.70;99.90;;;;;;5046297;28;20049;-70
2021/09/30 04:02:39;;;;;;;4.95;1.75;;;9.50;99.90;;;;;;5005404;28;20034;-70
2021/09/30 04:05:05;;;;;;;3.70;1.45;;;9.50;99.90;;;;;;5016233;28;20084;-70
2021/09/30 04:07:31;;;;;;;4.82;1.70;;;9.50;99.90;;;;;;5013292;28;20458;-71
2021/09/30 04:09:56;;;;;;;4.75;1.60;;;9.50;99.90;;;;;;5015076;28;20030;-70
2021/09/30 04:12:22;;;;;;;4.18;1.30;;;9.50;99.90;;;;;;5014406;28;20022;-70
2021/09/30 04:14:48;;;;;;;5.18;1.35;;;9.50;99.90;;;;;;5013146;28;20038;-70
2021/09/30 04:17:13;;;;;;;2.25;1.38;;;9.50;99.90;;;;;;5015700;28;20025;-70
2021/09/30 04:19:40;;;;;;;4.53;1.40;;;9.40;99.90;;;;;;5017487;28;20044;-72
2021/09/30 04:22:06;;;;;;;4.65;1.70;;;9.40;99.90;;;;;;5015996;28;20033;-71
2021/09/30 04:24:31;;;;;;;5.57;1.42;;;9.40;99.90;;;;;;5034508;28;20744;-70
2021/09/30 04:26:57;;;;;;;4.93;1.90;;;9.40;99.90;;;;;;5016921;28;20026;-70
2021/09/30 04:29:24;;;;;;;1.65;1.30;;;9.40;99.90;;;;;;5017085;28;20025;-70
2021/09/30 04:31:50;;;;;;;3.40;1.50;;;9.40;99.90;;;;;;5017492;28;20108;-70
2021/09/30 04:34:15;;;;;;;5.55;1.42;;;9.40;99.90;;;;;;5017773;28;20041;-70
2021/09/30 04:36:41;;;;;;;6.93;1.40;;;9.40;99.90;;;;;;5019188;28;20036;-70
2021/09/30 04:39:07;;;;;;;2.22;1.30;;;9.40;99.90;;;;;;5012660;28;20652;-69
2021/09/30 04:41:34;;;;;;;10.90;1.77;;;9.60;99.90;;;;;;5017997;28;20029;-69
2021/09/30 04:44:02;;;;;;;8.10;1.38;;;9.50;99.90;;;;;;5016940;28;20037;-69
2021/09/30 04:46:30;;;;;;;10.15;1.73;;;9.50;99.90;;;;;;5018369;28;20064;-69
2021/09/30 04:49:15;;;;;;;7.13;2.03;;;9.50;99.90;;;;;;5013703;28;20034;-69
2021/09/30 04:51:41;;;;;;;6.22;1.98;;;9.50;99.90;;;;;;5018394;28;20031;-69
2021/09/30 04:54:06;;;;;;;5.80;1.50;;;9.50;99.90;;;;;;5018652;28;20026;-69
2021/09/30 04:56:32;;;;;;;6.15;1.60;;;9.50;99.90;;;;;;5011301;28;20062;-69
2021/09/30 04:59:08;;;;;;;3.75;1.25;;;9.50;99.90;;;;;;5015577;28;20025;-70
2021/09/30 05:01:34;;;;;;;4.57;1.55;;;9.50;99.90;;;;;;5017410;28;20030;-69
2021/09/30 05:04:02;;;;;;;3.05;1.48;;;9.50;99.90;;;;;;5016308;28;20025;-69
2021/09/30 05:06:28;;;;;;;5.82;2.08;;;9.60;99.90;;;;;;5014343;28;20027;-70
2021/09/30 05:08:57;;;;;;;9.48;1.42;;;9.70;99.90;;;;;;5014012;28;20033;-69
2021/09/30 05:11:23;;;;;;;4.50;1.40;;;9.60;99.90;;;;;;5045457;28;20029;-69
2021/09/30 05:13:53;;;;;;;4.70;1.30;;;9.70;99.90;;;;;;5016003;28;20176;-70
2021/09/30 05:16:19;;;;;;;2.58;1.15;;;9.70;99.90;;;;;;5011881;28;20379;-70
2021/09/30 05:19:07;;;;;;;5.38;1.55;;;9.80;99.90;;;;;;5014973;28;20151;-70
2021/09/30 05:21:33;;;;;;;3.38;1.20;;;9.70;99.90;;;;;;5013921;28;20445;-70
2021/09/30 05:24:00;;;;;;;4.15;1.40;;;9.80;99.90;;;;;;5015733;28;20040;-71
2021/09/30 05:26:30;;;;;;;9.93;1.50;;;9.70;99.90;;;;;;5015366;28;20492;-70
2021/09/30 05:28:56;;;;;;;2.55;1.23;;;9.80;99.90;;;;;;5015382;28;20120;-70
2021/09/30 05:31:22;;;;;;;6.80;2.83;;;9.80;99.90;;;;;;5015175;28;20029;-69
2021/09/30 05:34:14;;;;;;;4.20;1.50;;;9.80;99.90;;;;;;5017041;28;20120;-70
2021/09/30 05:36:39;;;;;;;3.78;1.48;;;9.70;99.90;;;;;;5015508;28;20041;-70
2021/09/30 05:39:05;;;;;;;5.13;1.23;;;9.80;99.90;;;;;;5017578;28;20481;-70
2021/09/30 05:41:32;;;;;;;4.88;2.03;;;9.80;99.90;;;;;;5016629;28;20038;-70
2021/09/30 05:44:06;;;;;;;3.50;1.75;;;9.90;99.90;;;;;;5017338;28;20033;-69
2021/09/30 05:46:47;;;;;;;2.08;1.10;;;9.90;99.90;;;;;;5031822;28;20559;-70
2021/09/30 05:49:14;;;;;;;5.55;1.30;;;10.00;99.90;;;;;;5006513;28;20112;-70
2021/09/30 05:51:39;;;;;;;6.38;1.20;;;9.90;99.90;;;;;;5019173;28;20039;-70
2021/09/30 05:54:43;;;;;;;5.38;1.38;;;10.00;99.90;;;;;;5003004;28;20045;-70
2021/09/30 05:57:21;;;;;;;6.13;1.58;;;10.10;99.90;;;;;;5013890;28;20235;-70
2021/09/30 05:59:46;;;;;;;2.35;1.25;;;10.10;99.90;;;;;;5017038;28;20029;-71
2021/09/30 06:10:35;;;;;;;6.78;2.17;;;10.00;99.90;;;;;;5015927;28;20033;-70
2021/09/30 06:13:05;;;;;;;7.88;1.35;;;10.00;99.90;;;;;;5014906;28;20092;-70
2021/09/30 06:15:33;;;;;;;6.22;1.10;;;10.10;99.90;;;;;;5018242;28;20034;-69
2021/09/30 06:18:00;;;;;;;5.00;1.25;;;10.10;99.90;;;;;;5011395;28;20041;-70
2021/09/30 06:20:26;;;;;;;2.03;1.13;;;10.10;99.90;;;;;;5019232;28;20037;-69
2021/09/30 06:22:54;;;;;;;3.45;1.35;;;10.10;99.90;;;;;;5020626;28;20029;-70
2021/09/30 06:25:20;;;;;;;5.20;1.42;;;10.20;99.90;;;;;;5018329;28;20044;-70
2021/09/30 06:27:45;;;;;;;4.53;1.20;;;10.20;99.90;;;;;;5006881;28;20033;-69
2021/09/30 06:30:11;;;;;;;6.15;1.33;;;10.20;99.90;;;;;;5020297;28;20053;-70
2021/09/30 06:32:39;;;;;;;3.58;1.58;;;10.30;99.90;;;;;;5018645;28;20069;-70
2021/09/30 06:35:07;;;;;;;6.93;1.40;;;10.20;99.90;;;;;;5012366;28;20046;-69
2021/09/30 06:37:43;;;;;;;9.95;1.77;;;10.30;99.90;;;;;;5017803;28;20073;-70
2021/09/30 06:40:09;;;;;;;4.53;1.23;;;10.30;99.90;;;;;;5019800;28;20072;-70
2021/09/30 06:42:34;;;;;;;3.20;1.17;;;10.40;99.90;;;;;;5018505;28;20034;-70
2021/09/30 06:45:12;;;;;;;5.20;1.50;;;10.40;99.90;;;;;;5022694;28;20048;-70
2021/09/30 06:48:07;;;;;;;6.95;1.52;;;10.40;99.90;;;;;;5013163;28;20765;-70
2021/09/30 06:50:46;;;;;;;5.07;1.50;;;10.50;99.90;;;;;;5016863;28;20825;-69
2021/09/30 06:53:24;;;;;;;7.80;2.13;;;10.50;99.90;;;;;;5021035;28;20588;-71
2021/09/30 06:56:13;;;;;;;4.72;1.35;;;10.50;99.90;;;;;;5016027;28;20042;-70
2021/09/30 06:58:54;;;;;;;4.15;1.40;;;10.60;99.90;;;;;;5012025;28;20061;-70
2021/09/30 07:01:38;;;;;;;11.40;2.75;;;10.60;99.90;;;;;;5019725;28;20543;-70
2021/09/30 07:04:27;;;;;;;3.70;1.50;;;10.60;99.90;;;;;;5015861;28;20063;-69
2021/09/30 07:07:11;;;;;;;4.93;1.33;;;10.70;99.90;;;;;;5017131;28;20034;-70
2021/09/30 07:09:37;;;;;;;11.82;1.92;;;10.70;99.90;;;;;;5017055;28;20041;-69
2021/09/30 07:12:03;;;;;;;1.90;1.10;;;10.80;99.90;;;;;;5006073;28;20026;-74
2021/09/30 07:14:28;;;;;;;7.68;1.50;;;10.80;99.90;;;;;;5010450;28;20571;-70
2021/09/30 07:16:54;;;;;;;5.15;1.40;;;10.80;99.90;;;;;;5019177;28;20713;-70
2021/09/30 07:19:19;;;;;;;3.58;1.38;;;10.80;99.90;;;;;;5018664;28;20037;-71
2021/09/30 07:21:45;;;;;;;4.53;1.33;;;10.80;99.90;;;;;;5017543;28;20144;-70
2021/09/30 07:24:10;;;;;;;6.32;1.55;;;10.90;99.90;;;;;;5006801;28;20033;-70
2021/09/30 07:26:36;;;;;;;3.90;1.20;;;11.00;99.90;;;;;;5019329;28;20077;-71
2021/09/30 07:29:01;;;;;;;5.97;1.40;;;10.90;99.90;;;;;;5018600;28;20021;-70
2021/09/30 07:31:27;;;;;;;3.75;1.48;;;11.10;99.90;;;;;;5019705;28;20037;-69
2021/09/30 07:33:52;;;;;;;1.88;1.17;;;11.10;99.90;;;;;;5017708;28;20061;-71
2021/09/30 07:36:18;;;;;;;8.18;1.70;;;11.10;99.90;;;;;;5009840;28;20042;-69
2021/09/30 07:38:44;;;;;;;6.30;1.00;;;11.10;99.90;;;;;;5008415;28;20041;-64
2021/09/30 07:41:09;;;;;;;9.45;1.25;;;11.10;99.90;;;;;;5002972;28;20060;-64
2021/09/30 07:43:35;;;;;;;5.30;1.88;;;11.20;99.90;;;;;;5017768;28;20059;-64
2021/09/30 07:46:00;;;;;;;6.28;2.13;;;11.20;99.90;;;;;;5018800;28;20044;-65
2021/09/30 07:48:26;;;;;;;5.68;1.30;;;11.80;99.90;;;;;;5010809;28;20037;-64
2021/09/30 07:50:51;;;;;;;11.13;1.70;;;11.80;99.90;;;;;;5007024;28;20045;-64
2021/09/30 07:53:17;;;;;;;6.88;1.55;;;11.40;99.90;;;;;;5002031;28;20034;-65
2021/09/30 07:55:42;;;;;;;9.48;1.27;;;11.30;99.90;;;;;;5016210;28;20477;-65
2021/09/30 07:58:09;;;;;;;6.10;1.80;;;11.20;99.90;;;;;;5008913;28;20104;-66
2021/09/30 08:00:35;;;;;;;3.92;1.52;;;11.30;99.90;;;;;;5012522;28;20037;-65
2021/09/30 08:03:00;;;;;;;5.32;1.50;;;11.40;99.90;;;;;;5019473;28;20064;-63
2021/09/30 08:05:26;;;;;;;5.22;1.40;;;11.40;99.90;;;;;;5019527;28;20041;-64
2021/09/30 08:07:51;;;;;;;9.20;3.22;;;11.40;99.90;;;;;;5015464;28;20045;-64
2021/09/30 08:10:17;;;;;;;6.53;1.60;;;11.50;99.90;;;;;;5012406;28;20029;-64
2021/09/30 08:12:42;;;;;;;6.93;1.35;;;11.60;99.90;;;;;;5006590;28;20717;-64
2021/09/30 08:15:08;;;;;;;6.13;1.55;;;11.60;99.90;;;;;;5003119;28;20679;-64
2021/09/30 08:17:33;;;;;;;7.50;2.08;;;11.90;99.90;;;;;;5003969;28;20029;-64
2021/09/30 08:19:59;;;;;;;4.70;1.20;;;11.70;99.90;;;;;;5018072;28;20806;-65
2021/09/30 08:22:24;;;;;;;6.80;1.42;;;11.90;99.90;;;;;;5013841;28;20324;-65
2021/09/30 08:24:50;;;;;;;7.95;1.67;;;12.20;99.90;;;;;;5016875;28;20045;-65
2021/09/30 08:27:15;;;;;;;4.82;1.40;;;12.20;99.90;;;;;;5019842;28;20033;-64
2021/09/30 08:29:41;;;;;;;5.30;1.20;;;12.30;99.90;;;;;;5017608;28;20079;-65
2021/09/30 08:32:07;;;;;;;7.25;1.67;;;12.40;99.90;;;;;;5011276;28;20060;-65
2021/09/30 08:34:32;;;;;;;4.25;1.15;;;12.70;99.90;;;;;;5006240;28;20042;-65
2021/09/30 08:36:58;;;;;;;3.58;1.10;;;13.00;99.90;;;;;;5002690;28;20045;-65
2021/09/30 08:39:23;;;;;;;4.20;1.45;;;13.20;99.90;;;;;;5004853;28;20040;-64
2021/09/30 08:41:49;;;;;;;7.10;1.40;;;13.30;99.90;;;;;;5017592;28;20120;-65
2021/09/30 08:44:14;;;;;;;2.60;1.02;;;13.60;99.90;;;;;;5012023;28;20029;-65
2021/09/30 08:46:40;;;;;;;7.50;1.48;;;14.30;99.90;;;;;;5018380;28;20056;-65
2021/09/30 08:49:05;;;;;;;2.78;1.20;;;13.80;99.90;;;;;;5019901;28;20119;-65
2021/09/30 08:51:31;;;;;;;2.80;1.35;;;14.00;99.90;;;;;;5013824;28;20053;-64
2021/09/30 08:53:57;;;;;;;5.63;1.10;;;14.00;99.90;;;;;;5013832;28;20025;-65
2021/09/30 08:56:22;;;;;;;4.15;1.17;;;13.90;99.90;;;;;;5016308;28;20044;-65
2021/09/30 08:58:48;;;;;;;1.70;1.05;;;13.60;99.90;;;;;;5020593;28;20131;-65
2021/09/30 09:01:13;;;;;;;4.85;1.15;;;13.50;99.90;;;;;;5018863;28;20037;-65
2021/09/30 09:03:39;;;;;;;2.67;1.20;;;13.80;99.90;;;;;;5019406;28;20034;-69
2021/09/30 09:06:05;;;;;;;2.55;1.05;;;13.70;99.90;;;;;;5011867;28;20147;-68
2021/09/30 09:08:30;;;;;;;4.78;1.20;;;13.80;99.90;;;;;;5017300;28;20048;-69
2021/09/30 09:10:56;;;;;;;8.60;3.05;;;13.90;99.90;;;;;;5020252;28;20039;-69
2021/09/30 09:13:22;;;;;;;7.63;1.70;;;14.20;99.90;;;;;;5015650;28;20377;-68
2021/09/30 09:15:47;;;;;;;9.55;1.20;;;14.20;99.90;;;;;;5010991;28;20569;-69
2021/09/30 09:18:13;;;;;;;7.45;1.50;;;14.20;99.90;;;;;;5015282;28;20505;-69
2021/09/30 09:20:38;;;;;;;6.80;1.17;;;14.10;99.90;;;;;;5001674;28;20088;-68
2021/09/30 09:23:04;;;;;;;4.15;1.23;;;13.80;99.90;;;;;;5004485;28;20037;-69
2021/09/30 09:25:30;;;;;;;8.77;1.30;;;13.70;99.90;;;;;;5008299;28;20037;-69
2021/09/30 09:27:55;;;;;;;8.52;1.63;;;13.50;99.90;;;;;;5011633;28;20043;-69
2021/09/30 09:30:21;;;;;;;3.30;1.30;;;13.50;99.90;;;;;;5005236;28;20030;-69
2021/09/30 09:32:46;;;;;;;2.60;1.00;;;13.40;99.90;;;;;;5002379;28;20037;-68
2021/09/30 09:35:13;;;;;;;4.43;1.17;;;13.40;99.90;;;;;;5018222;28;20118;-68
2021/09/30 09:37:38;;;;;;;2.15;0.95;;;13.50;99.90;;;;;;5022391;28;20025;-68
2021/09/30 09:40:04;;;;;;;10.57;1.42;;;13.70;99.90;;;;;;5015143;28;20505;-68
2021/09/30 09:42:30;;;;;;;3.05;1.17;;;14.00;99.90;;;;;;5019685;28;20041;-68
2021/09/30 09:44:55;;;;;;;6.90;1.30;;;13.90;99.90;;;;;;5004440;28;20140;-69
2021/09/30 09:47:21;;;;;;;3.83;0.90;;;14.60;99.90;;;;;;5017659;28;20117;-68
2021/09/30 09:49:46;;;;;;;5.25;1.20;;;15.30;99.90;;;;;;5010644;28;20561;-69
2021/09/30 09:52:13;;;;;;;7.55;1.02;;;15.10;99.90;;;;;;5005584;28;20038;-69
2021/09/30 09:54:39;;;;;;;4.45;1.00;;;15.40;99.90;;;;;;5002915;28;20061;-69
2021/09/30 09:57:05;;;;;;;10.75;1.52;;;15.70;99.90;;;;;;5017751;28;20053;-69
2021/09/30 09:59:30;;;;;;;5.18;1.15;;;15.90;99.90;;;;;;5010050;28;20047;-68
2021/09/30 10:01:57;;;;;;;3.92;1.10;;;15.90;99.90;;;;;;5010479;28;20030;-71
2021/09/30 10:04:23;;;;;;;6.25;1.25;;;16.10;99.90;;;;;;5002110;28;20525;-69
2021/09/30 10:06:48;;;;;;;3.33;1.02;;;16.30;99.90;;;;;;5004265;28;20095;-69
2021/09/30 10:09:14;;;;;;;4.57;1.42;;;16.20;99.90;;;;;;5008440;28;20118;-69
2021/09/30 10:11:40;;;;;;;6.45;1.45;;;16.30;99.90;;;;;;5012717;28;20037;-69
2021/09/30 10:14:05;;;;;;;4.25;1.27;;;16.10;99.80;;;;;;5018642;28;20033;-70
2021/09/30 10:16:31;;;;;;;7.88;1.00;;;16.20;99.90;;;;;;5001552;28;20594;-69
2021/09/30 10:18:57;;;;;;;5.10;1.30;;;16.40;99.90;;;;;;5012818;28;20022;-69
2021/09/30 10:21:23;;;;;;;12.35;1.67;;;16.60;99.90;;;;;;5017337;28;20813;-68
2021/09/30 10:23:48;;;;;;;4.72;1.15;;;16.40;99.40;;;;;;5011505;28;20034;-68
2021/09/30 10:26:14;;;;;;;10.23;1.58;;;16.40;99.90;;;;;;5007147;28;20069;-69
2021/09/30 10:28:40;;;;;;;4.68;1.60;;;16.80;99.90;;;;;;5008144;28;20036;-69
2021/09/30 10:31:06;;;;;;;6.18;1.10;;;17.20;99.90;;;;;;5013299;28;20029;-69
2021/09/30 10:33:31;;;;;;;9.90;2.03;;;17.40;98.60;;;;;;5009418;28;20557;-69
2021/09/30 10:35:57;;;;;;;7.57;1.20;;;17.40;99.50;;;;;;5004230;28;20037;-69
2021/09/30 10:38:22;;;;;;;4.18;1.17;;;17.40;98.40;;;;;;5005477;28;20034;-69
2021/09/30 10:40:47;;;;;;;7.18;1.10;;;17.40;98.30;;;;;;5008835;28;20029;-69
2021/09/30 10:43:13;;;;;;;8.32;1.77;;;17.20;99.00;;;;;;5008854;28;20037;-69
2021/09/30 10:45:38;;;;;;;6.10;1.20;;;16.80;99.30;;;;;;5016226;28;20777;-69
2021/09/30 10:48:04;;;;;;;6.53;1.30;;;16.50;99.20;;;;;;5013713;28;20041;-69
2021/09/30 10:50:29;;;;;;;6.03;0.93;;;16.60;99.60;;;;;;5008428;28;20053;-69
2021/09/30 10:52:55;;;;;;;7.20;0.90;;;16.50;99.90;;;;;;5014366;28;20075;-69
2021/09/30 10:55:20;;;;;;;5.93;1.40;;;16.40;99.90;;;;;;5008538;28;20030;-70
2021/09/30 10:57:46;;;;;;;9.95;1.65;;;16.50;99.70;;;;;;5007818;28;20532;-70
2021/09/30 11:00:11;;;;;;;14.00;1.88;;;16.30;99.30;;;;;;5019211;28;20133;-69
2021/09/30 11:02:37;;;;;;;8.38;1.80;;;16.30;99.90;;;;;;5011221;28;20122;-69
2021/09/30 11:05:02;;;;;;;5.47;0.95;;;16.20;98.70;;;;;;5019878;28;20038;-70
2021/09/30 11:07:28;;;;;;;11.07;1.20;;;16.10;99.70;;;;;;5017414;28;20497;-69
2021/09/30 11:09:53;;;;;;;4.47;1.13;;;15.90;99.60;;;;;;5011577;28;20041;-70
2021/09/30 11:12:19;;;;;;;7.72;1.30;;;15.80;99.70;;;;;;5011367;28;20467;-69
2021/09/30 11:14:44;;;;;;;8.45;1.92;;;15.90;99.90;;;;;;5016517;28;20032;-69
2021/09/30 11:17:10;;;;;;;9.68;2.63;;;15.90;99.90;;;;;;5014527;28;20516;-70
2021/09/30 11:19:38;;;;;;;6.43;2.00;;;16.00;99.90;;;;;;5019438;28;20033;-70
2021/09/30 11:22:05;;;;;;;8.90;1.50;;;16.00;99.90;;;;;;5008634;28;20022;-69
2021/09/30 11:24:31;;;;;;;6.40;1.10;;;16.00;99.90;;;;;;5019891;28;20061;-69
2021/09/30 11:26:56;;;;;;;6.05;1.15;;;16.30;99.80;;;;;;5014257;28;20137;-70
2021/09/30 11:29:22;;;;;;;4.07;1.20;;;16.40;99.90;;;;;;5013257;28;20626;-69
2021/09/30 11:31:47;;;;;;;10.77;2.63;;;16.50;99.20;;;;;;5011089;28;20037;-69
2021/09/30 11:34:13;;;;;;;5.60;1.80;;;16.40;98.20;;;;;;5041613;28;20492;-69
2021/09/30 11:36:38;;;;;;;7.38;1.50;;;16.30;99.50;;;;;;5010746;28;20172;-69
2021/09/30 11:39:04;;;;;;;7.80;1.50;;;16.10;99.90;;;;;;5015426;28;20088;-69
2021/09/30 11:41:29;;;;;;;6.32;0.90;;;16.00;99.90;;;;;;5018268;28;20386;-70
2021/09/30 11:43:55;;;;;;;7.90;1.85;;;15.90;99.90;;;;;;5020674;28;20458;-70
2021/09/30 11:46:20;;;;;;;7.72;2.10;;;15.80;99.90;;;;;;5013674;28;20034;-70
2021/09/30 11:48:46;;;;;;;9.05;2.47;;;15.80;99.10;;;;;;5012080;28;20462;-70
2021/09/30 11:51:11;;;;;;;5.60;1.33;;;15.90;99.80;;;;;;5013318;28;20029;-70
2021/09/30 11:53:37;;;;;;;6.43;2.00;;;15.90;99.90;;;;;;5016901;28;20700;-69
2021/09/30 11:56:03;;;;;;;6.10;1.50;;;16.10;99.40;;;;;;5019853;28;20029;-69
2021/09/30 11:58:29;;;;;;;4.47;1.00;;;15.90;99.20;;;;;;5009170;28;20495;-69
2021/09/30 12:00:55;;;;;;;5.22;1.13;;;15.80;99.80;;;;;;5015324;28;20044;-69
2021/09/30 12:03:20;;;;;;;5.13;0.93;;;15.60;99.90;;;;;;5020345;28;20041;-69
2021/09/30 12:05:47;;;;;;;8.18;1.02;;;15.60;99.90;;;;;;5003868;28;20717;-70
2021/09/30 12:08:12;;;;;;;6.85;1.10;;;15.10;99.90;;;;;;5010015;28;20037;-70
2021/09/30 12:10:38;;;;;;;5.35;1.13;;;15.60;99.90;;;;;;5011443;28;20029;-69
2021/09/30 12:13:03;;;;;;;7.05;0.98;;;15.40;99.90;;;;;;5021150;28;20041;-69
2021/09/30 12:15:29;;;;;;;6.40;1.25;;;15.40;99.90;;;;;;5016518;28;20033;-70
2021/09/30 12:17:55;;;;;;;6.93;0.90;;;15.50;99.90;;;;;;5004323;28;20037;-70
2021/09/30 12:20:20;;;;;;;10.60;1.00;;;15.90;99.70;;;;;;5019341;28;20045;-70
2021/09/30 12:22:46;;;;;;;5.65;0.90;;;16.30;99.90;;;;;;5013951;28;20406;-70
2021/09/30 12:25:11;;;;;;;11.32;1.13;;;16.60;98.00;;;;;;5017433;28;20033;-70
2021/09/30 12:27:37;;;;;;;6.10;1.17;;;16.90;97.60;;;;;;5009581;28;20535;-69
2021/09/30 12:30:02;;;;;;;5.82;1.23;;;17.20;97.20;;;;;;5006252;28;20104;-70
2021/09/30 12:32:28;;;;;;;8.45;1.20;;;17.20;97.10;;;;;;5014333;28;20112;-70
2021/09/30 12:34:54;;;;;;;9.75;1.20;;;17.40;97.70;;;;;;5015020;28;20128;-70
2021/09/30 12:37:19;;;;;;;4.50;1.23;;;17.40;97.80;;;;;;5020210;28;20037;-70
2021/09/30 12:39:44;;;;;;;5.45;1.00;;;18.00;97.00;;;;;;5020135;28;20836;-70
2021/09/30 12:42:10;;;;;;;8.30;1.13;;;18.40;96.00;;;;;;5010834;28;20033;-70
2021/09/30 12:44:41;;;;;;;4.35;1.00;;;18.70;94.50;;;;;;5014188;28;20513;-70
2021/09/30 12:47:07;;;;;;;4.68;0.85;;;18.70;94.80;;;;;;5005734;28;20057;-70
2021/09/30 12:49:33;;;;;;;5.07;0.98;;;18.80;92.60;;;;;;5007213;28;20899;-70
2021/09/30 12:51:59;;;;;;;8.55;1.20;;;18.70;92.20;;;;;;5009823;28;20037;-70
2021/09/30 12:54:24;;;;;;;7.18;1.63;;;18.30;92.30;;;;;;5012507;28;20034;-70
2021/09/30 12:56:50;;;;;;;3.97;1.00;;;18.20;92.80;;;;;;5012666;28;20042;-70
2021/09/30 12:59:15;;;;;;;3.97;0.85;;;18.10;93.30;;;;;;5016596;28;20174;-70
2021/09/30 13:01:41;;;;;;;10.18;1.02;;;18.10;94.10;;;;;;5013255;28;20033;-70
2021/09/30 13:04:06;;;;;;;4.40;0.80;;;18.10;92.50;;;;;;5010378;28;20146;-70
2021/09/30 13:06:32;;;;;;;7.07;1.50;;;18.00;93.40;;;;;;5017510;28;20056;-71
2021/09/30 13:08:57;;;;;;;4.65;1.00;;;18.10;93.80;;;;;;5017225;28;20737;-70
2021/09/30 13:11:23;;;;;;;5.88;1.08;;;18.10;93.00;;;;;;5019071;28;20116;-70
2021/09/30 13:13:48;;;;;;;5.63;0.85;;;18.10;92.60;;;;;;5017397;28;20037;-71
2021/09/30 13:16:14;;;;;;;4.38;1.30;;;18.20;91.50;;;;;;5014773;28;20768;-71
2021/09/30 13:18:39;;;;;;;6.93;1.45;;;18.20;91.00;;;;;;5010054;28;20268;-70
2021/09/30 13:21:05;;;;;;;2.80;0.70;;;18.00;91.20;;;;;;5019806;28;20037;-70
2021/09/30 13:23:30;;;;;;;3.85;1.10;;;18.10;93.30;;;;;;5004083;28;20116;-70
2021/09/30 13:25:56;;;;;;;5.03;0.95;;;18.00;92.60;;;;;;5010709;28;20038;-70
2021/09/30 13:28:21;;;;;;;4.35;1.10;;;18.00;92.20;;;;;;5013698;28;20060;-70
2021/09/30 13:30:47;;;;;;;5.57;1.00;;;18.10;93.10;;;;;;5016808;28;20475;-70
2021/09/30 13:33:13;;;;;;;4.40;0.70;;;18.10;91.90;;;;;;5019750;28;20033;-69
2021/09/30 13:35:39;;;;;;;3.38;0.80;;;18.00;92.90;;;;;;5014636;28;20053;-69
2021/09/30 13:38:05;;;;;;;6.22;1.52;;;18.00;92.10;;;;;;5016024;28;20087;-70
2021/09/30 13:40:30;;;;;;;8.93;1.00;;;17.60;91.70;;;;;;5008025;28;20026;-69
2021/09/30 13:42:56;;;;;;;5.40;1.10;;;17.60;92.00;;;;;;5014089;28;20457;-70
2021/09/30 13:45:21;;;;;;;7.32;1.30;;;17.50;92.10;;;;;;5019301;28;20040;-70
2021/09/30 13:47:47;;;;;;;5.97;0.90;;;17.70;92.90;;;;;;5018368;28;20038;-69
2021/09/30 13:50:13;;;;;;;4.75;0.88;;;17.90;92.50;;;;;;5013251;28;20273;-70
2021/09/30 13:52:39;;;;;;;4.53;1.00;;;18.00;91.10;;;;;;5005905;28;20402;-69
2021/09/30 13:55:06;;;;;;;8.57;1.10;;;18.00;91.50;;;;;;5001139;28;20029;-70
2021/09/30 13:57:34;;;;;;;4.35;1.00;;;17.80;91.60;;;;;;5008523;28;20052;-70
2021/09/30 13:59:59;;;;;;;6.35;0.90;;;18.20;92.80;;;;;;5009957;28;20041;-65
2021/09/30 14:02:25;;;;;;;4.43;0.93;;;18.70;91.50;;;;;;5013010;28;20147;-67
2021/09/30 14:04:50;;;;;;;4.55;1.15;;;18.90;91.10;;;;;;5016292;28;20022;-66
2021/09/30 14:07:16;;;;;;;10.45;1.15;;;18.90;90.60;;;;;;5017570;28;20432;-66
2021/09/30 14:09:41;;;;;;;6.65;0.90;;;18.80;90.00;;;;;;5007987;28;20040;-65
2021/09/30 14:12:07;;;;;;;6.00;0.90;;;19.10;90.70;;;;;;5014392;28;20485;-65
2021/09/30 14:14:32;;;;;;;4.45;0.80;;;19.10;90.00;;;;;;5005507;28;20493;-65
2021/09/30 14:16:58;;;;;;;6.72;1.00;;;19.20;90.10;;;;;;5008706;28;20034;-65
2021/09/30 14:19:25;;;;;;;4.47;1.23;;;19.10;90.40;;;;;;5016234;28;20526;-65
2021/09/30 14:21:51;;;;;;;6.05;1.30;;;18.90;91.00;;;;;;5012084;28;20068;-64
2021/09/30 14:24:16;;;;;;;6.13;1.15;;;18.70;91.80;;;;;;5013027;28;20029;-69
2021/09/30 14:26:42;;;;;;;4.88;1.10;;;18.30;90.00;;;;;;5018011;28;20406;-69
2021/09/30 14:29:07;;;;;;;5.00;1.65;;;17.90;90.60;;;;;;5018544;28;20065;-69
2021/09/30 14:31:33;;;;;;;4.82;1.50;;;17.70;91.20;;;;;;5016227;28;20045;-69
2021/09/30 14:33:58;;;;;;;6.43;1.08;;;17.40;91.20;;;;;;5013399;28;20038;-71
2021/09/30 14:36:24;;;;;;;6.40;1.50;;;17.20;92.30;;;;;;5017008;28;20128;-70
2021/09/30 14:38:50;;;;;;;3.85;0.80;;;;;;;;;;5008667;28;20033;-67
2021/09/30 14:41:15;;;;;;;9.85;0.98;;;16.50;92.80;;;;;;5008907;28;20044;-68
2021/09/30 14:43:41;;;;;;;6.95;1.85;;;16.90;93.10;;;;;;5012169;28;20034;-68
2021/09/30 14:46:06;;;;;;;9.77;1.80;;;17.10;92.00;;;;;;5021897;28;20107;-67
2021/09/30 14:48:32;;;;;;;7.60;0.88;;;17.30;92.80;;;;;;5017557;28;20456;-67
2021/09/30 14:50:57;;;;;;;6.43;1.02;;;17.60;93.00;;;;;;5012549;28;20033;-68
2021/09/30 14:53:23;;;;;;;7.28;1.20;;;17.80;92.30;;;;;;5017887;28;20151;-68
2021/09/30 14:55:48;;;;;;;6.00;0.80;;;17.80;91.90;;;;;;5017388;28;20406;-69
2021/09/30 14:58:14;;;;;;;6.07;0.90;;;17.80;91.40;;;;;;5011737;28;20743;-70
2021/09/30 15:00:39;;;;;;;9.73;1.92;;;17.50;90.80;;;;;;5009447;28;20120;-70
2021/09/30 15:03:05;;;;;;;5.15;1.15;;;17.20;92.30;;;;;;5016859;28;20034;-72
2021/09/30 15:05:31;;;;;;;4.05;0.98;;;16.60;92.20;;;;;;5015411;28;20407;-69
2021/09/30 15:07:56;;;;;;;4.38;0.80;;;16.90;92.70;;;;;;5016018;28;20084;-70
2021/09/30 15:10:22;;;;;;;6.65;1.00;;;16.80;93.30;;;;;;5020924;28;20079;-68
2021/09/30 15:12:47;;;;;;;5.03;1.00;;;16.50;93.20;;;;;;5023332;28;20041;-69
2021/09/30 15:15:13;;;;;;;4.50;0.82;;;16.30;93.70;;;;;;5012829;28;20493;-69
2021/09/30 15:22:32;;;;;;;4.60;1.27;;;16.00;94.20;;;;;;5012146;28;20219;-68
2021/09/30 15:24:57;;;;;;;5.90;1.08;;;15.80;96.30;;;;;;5013448;28;20041;-72
2021/09/30 15:27:23;;;;;;;4.25;1.17;;;15.60;95.30;;;;;;5014464;28;20033;-69
2021/09/30 15:29:48;;;;;;;6.90;1.30;;;15.60;96.30;;;;;;5016323;28;20038;-70
2021/09/30 15:32:14;;;;;;;3.28;0.75;;;15.50;95.90;;;;;;5012042;28;20038;-71
2021/09/30 15:34:40;;;;;;;6.53;1.42;;;15.40;96.40;;;;;;5004010;28;20048;-72
2021/09/30 15:37:05;;;;;;;8.70;1.20;;;15.30;96.30;;;;;;5008828;28;20103;-72
2021/09/30 15:39:30;;;;;;;4.28;0.80;;;15.20;96.00;;;;;;5013914;28;20091;-72
2021/09/30 15:41:56;;;;;;;4.05;1.27;;;15.00;96.20;;;;;;5021343;28;20041;-72